Time;durP1;ratioP1;P1;durP2;ratioP2;P2;SDS_P1;SDS_P2;PMS_P1;PMS_P2;Temp;Humidity;BMP_temperature;BMP_pressure;BME280_temperature;BME280_humidity;BME280_pressure;Samples;Min_cycle;Max_cycle;Signal;HPM_P1;HPM_P2
2022/02/22 00:01:27;;;;;;;10.50;2.67;;;12.80;99.90;;;;;;4974867;28;20046;-52
2022/02/22 00:03:55;;;;;;;10.25;3.20;;;12.80;99.90;;;;;;4974381;28;20094;-52
2022/02/22 00:06:24;;;;;;;8.43;5.10;;;12.80;99.90;;;;;;4973743;28;20852;-54
2022/02/22 00:08:51;;;;;;;8.63;4.38;;;12.80;99.90;;;;;;4974444;28;20051;-50
2022/02/22 00:11:22;;;;;;;8.07;3.28;;;12.80;99.90;;;;;;4959585;28;20051;-52
2022/02/22 00:13:50;;;;;;;5.05;2.70;;;12.90;99.90;;;;;;4974746;28;20413;-53
2022/02/22 00:16:18;;;;;;;6.97;3.70;;;12.90;99.90;;;;;;4975117;28;20047;-51
2022/02/22 00:18:46;;;;;;;8.50;3.28;;;12.80;99.90;;;;;;4973040;28;20443;-54
2022/02/22 00:21:14;;;;;;;4.78;2.33;;;12.80;99.90;;;;;;4974602;28;20047;-51
2022/02/22 00:23:45;;;;;;;12.60;3.28;;;12.80;99.90;;;;;;4973491;28;20046;-51
2022/02/22 00:26:12;;;;;;;6.60;2.38;;;12.70;99.90;;;;;;4973853;28;20050;-51
2022/02/22 00:28:40;;;;;;;8.80;2.30;;;12.80;99.90;;;;;;4973232;28;20053;-51
2022/02/22 00:31:08;;;;;;;9.57;3.42;;;12.80;99.90;;;;;;4974263;28;20043;-51
2022/02/22 00:33:35;;;;;;;7.75;2.72;;;12.80;99.90;;;;;;4958186;28;20050;-56
2022/02/22 00:36:03;;;;;;;6.53;2.42;;;12.90;99.90;;;;;;4973364;28;20050;-50
2022/02/22 00:38:32;;;;;;;4.95;1.92;;;12.80;99.90;;;;;;4972630;28;20047;-54
2022/02/22 00:40:59;;;;;;;6.22;2.42;;;12.80;99.90;;;;;;4973950;28;20521;-52
2022/02/22 00:43:27;;;;;;;5.70;1.85;;;12.80;99.90;;;;;;4973726;28;20039;-53
2022/02/22 00:45:54;;;;;;;5.65;1.90;;;12.80;99.90;;;;;;4973756;28;20042;-52
2022/02/22 00:48:22;;;;;;;6.53;3.47;;;12.70;99.90;;;;;;4971417;28;20047;-56
2022/02/22 00:50:51;;;;;;;4.25;2.10;;;12.70;99.90;;;;;;4973946;28;20047;-60
2022/02/22 00:53:22;;;;;;;7.13;2.97;;;12.70;99.90;;;;;;4972422;28;20050;-51
2022/02/22 00:55:49;;;;;;;8.00;3.00;;;12.60;99.90;;;;;;4970501;28;20055;-53
2022/02/22 00:58:17;;;;;;;4.68;2.50;;;12.50;99.90;;;;;;4952521;28;20063;-52
2022/02/22 01:00:44;;;;;;;7.07;3.90;;;12.50;99.90;;;;;;4973616;28;20078;-51
2022/02/22 01:03:12;;;;;;;6.18;3.08;;;12.50;99.90;;;;;;4951433;28;20374;-52
2022/02/22 01:05:40;;;;;;;5.28;2.85;;;12.40;99.90;;;;;;4972776;28;20042;-52
2022/02/22 01:08:07;;;;;;;10.55;3.58;;;12.40;99.90;;;;;;4974519;28;20166;-50
2022/02/22 01:10:35;;;;;;;7.80;4.07;;;12.30;99.90;;;;;;4972283;28;20050;-55
2022/02/22 01:13:02;;;;;;;6.28;2.88;;;12.40;99.90;;;;;;4972994;28;20413;-53
2022/02/22 01:15:30;;;;;;;6.00;2.63;;;12.30;99.90;;;;;;4972021;28;20130;-50
2022/02/22 01:17:59;;;;;;;9.98;2.92;;;12.30;99.90;;;;;;4974793;28;20477;-50
2022/02/22 01:20:27;;;;;;;13.77;3.10;;;12.40;99.90;;;;;;4973332;28;20047;-51
2022/02/22 01:22:56;;;;;;;12.38;3.33;;;12.30;99.90;;;;;;4937212;28;20062;-53
2022/02/22 01:25:27;;;;;;;13.65;4.28;;;12.30;99.90;;;;;;4964714;28;20098;-51
2022/02/22 01:27:55;;;;;;;9.50;3.47;;;12.30;99.90;;;;;;4949176;28;20525;-51
2022/02/22 01:30:23;;;;;;;5.95;3.17;;;12.30;99.90;;;;;;4964496;28;20501;-52
2022/02/22 01:32:50;;;;;;;7.25;3.50;;;12.30;99.90;;;;;;4956558;28;20505;-52
2022/02/22 01:35:18;;;;;;;4.60;3.30;;;12.30;99.90;;;;;;4974431;28;20070;-51
2022/02/22 01:37:45;;;;;;;6.00;2.67;;;12.30;99.90;;;;;;4972932;28;20046;-54
2022/02/22 01:40:14;;;;;;;10.02;3.38;;;12.30;99.90;;;;;;4972686;28;20049;-54
2022/02/22 01:42:41;;;;;;;6.70;2.58;;;12.40;99.90;;;;;;4974190;28;20375;-55
2022/02/22 01:45:09;;;;;;;7.95;3.80;;;12.40;99.90;;;;;;4974326;28;20068;-50
2022/02/22 01:47:37;;;;;;;9.73;2.80;;;12.40;99.90;;;;;;4974511;28;20043;-50
2022/02/22 01:50:06;;;;;;;6.88;3.75;;;12.40;99.90;;;;;;4958519;28;20482;-51
2022/02/22 01:52:34;;;;;;;5.13;3.08;;;12.40;99.90;;;;;;4975474;28;20130;-50
2022/02/22 01:55:02;;;;;;;6.28;2.67;;;12.40;99.90;;;;;;4974238;28;20047;-51
2022/02/22 01:57:30;;;;;;;10.90;3.63;;;12.50;99.90;;;;;;4974419;28;20126;-53
2022/02/22 01:59:59;;;;;;;5.97;2.55;;;12.50;99.90;;;;;;4958077;28;20049;-52
2022/02/22 02:02:28;;;;;;;4.78;2.58;;;12.60;99.90;;;;;;4974440;28;20094;-53
2022/02/22 02:04:56;;;;;;;5.97;2.55;;;12.70;99.90;;;;;;4974311;28;20046;-50
2022/02/22 02:07:23;;;;;;;6.50;2.88;;;12.80;99.90;;;;;;4975360;28;20039;-52
2022/02/22 02:09:51;;;;;;;7.45;3.00;;;12.80;99.90;;;;;;4958029;28;20486;-53
2022/02/22 02:12:18;;;;;;;7.57;3.10;;;12.80;99.90;;;;;;4974101;28;20039;-50
2022/02/22 02:14:46;;;;;;;4.85;2.60;;;12.80;99.90;;;;;;4973885;28;20050;-53
2022/02/22 02:17:15;;;;;;;12.13;3.85;;;12.80;99.90;;;;;;4973910;28;20047;-55
2022/02/22 02:19:42;;;;;;;10.90;4.05;;;12.90;99.90;;;;;;4975096;28;20078;-53
2022/02/22 02:22:10;;;;;;;10.93;3.83;;;13.00;99.90;;;;;;4974185;28;20086;-53
2022/02/22 02:24:37;;;;;;;8.20;3.47;;;13.00;99.90;;;;;;4974907;28;20038;-53
2022/02/22 02:27:05;;;;;;;14.27;3.00;;;13.00;99.90;;;;;;4974056;28;20054;-52
2022/02/22 02:29:32;;;;;;;9.27;3.25;;;12.80;99.90;;;;;;4975122;28;20043;-52
2022/02/22 02:32:03;;;;;;;5.80;2.60;;;12.70;99.90;;;;;;4973778;28;20046;-54
2022/02/22 02:34:31;;;;;;;9.15;2.03;;;12.60;99.90;;;;;;4973754;28;20034;-51
2022/02/22 02:36:58;;;;;;;5.45;2.30;;;12.30;99.90;;;;;;4973685;28;20046;-51
2022/02/22 02:39:26;;;;;;;4.20;2.25;;;12.00;99.90;;;;;;4973610;28;20042;-51
2022/02/22 02:41:54;;;;;;;3.83;2.22;;;11.90;99.90;;;;;;4973626;28;20050;-53
2022/02/22 02:44:24;;;;;;;5.47;1.48;;;11.80;99.90;;;;;;4974147;28;20055;-51
2022/02/22 02:46:52;;;;;;;4.18;1.30;;;11.70;99.90;;;;;;4973503;28;20055;-52
2022/02/22 02:49:20;;;;;;;4.47;1.77;;;11.60;99.90;;;;;;4957624;28;20498;-53
2022/02/22 02:51:48;;;;;;;2.97;1.35;;;11.50;99.90;;;;;;4974786;28;20466;-50
2022/02/22 02:54:16;;;;;;;4.72;1.55;;;11.60;99.90;;;;;;4973483;28;20042;-49
2022/02/22 02:56:43;;;;;;;3.45;1.73;;;11.70;99.90;;;;;;4973436;28;20074;-49
2022/02/22 02:59:11;;;;;;;3.85;1.65;;;11.80;99.90;;;;;;4974641;28;20042;-50
2022/02/22 03:01:43;;;;;;;5.03;1.40;;;11.90;99.90;;;;;;4942007;28;20049;-50
2022/02/22 03:04:12;;;;;;;5.90;2.22;;;11.90;99.90;;;;;;4974627;28;20046;-50
2022/02/22 03:06:40;;;;;;;2.28;0.93;;;11.90;99.90;;;;;;4973387;28;20416;-50
2022/02/22 03:09:10;;;;;;;4.20;1.20;;;11.90;99.90;;;;;;4973299;28;20138;-49
2022/02/22 03:11:38;;;;;;;3.78;1.05;;;11.80;99.90;;;;;;4973673;28;20039;-54
2022/02/22 03:14:07;;;;;;;3.70;1.30;;;11.80;99.90;;;;;;4973489;28;20047;-51
2022/02/22 03:16:35;;;;;;;4.25;1.20;;;11.60;99.90;;;;;;4974423;28;20142;-50
2022/02/22 03:19:03;;;;;;;6.25;1.08;;;11.60;99.90;;;;;;4973310;28;20405;-50
2022/02/22 03:21:33;;;;;;;3.75;1.15;;;11.70;99.90;;;;;;4957944;28;20047;-50
2022/02/22 03:24:02;;;;;;;2.72;1.25;;;11.60;99.90;;;;;;4973265;28;20051;-53
2022/02/22 03:26:32;;;;;;;1.60;1.00;;;11.60;99.90;;;;;;4957705;28;20501;-50
2022/02/22 03:29:00;;;;;;;1.58;0.82;;;11.60;99.90;;;;;;4973553;28;20051;-55
2022/02/22 03:31:28;;;;;;;3.55;1.25;;;11.70;99.90;;;;;;4973267;28;20039;-53
2022/02/22 03:33:58;;;;;;;1.42;0.70;;;11.60;99.90;;;;;;4974279;28;20077;-53
2022/02/22 03:36:25;;;;;;;4.40;1.15;;;11.60;99.90;;;;;;4974162;28;20047;-53
2022/02/22 03:38:54;;;;;;;2.00;1.20;;;11.40;99.90;;;;;;4973205;28;20050;-51
2022/02/22 03:41:23;;;;;;;2.40;0.80;;;11.40;99.90;;;;;;4957614;28;20402;-53
2022/02/22 03:43:50;;;;;;;1.83;1.45;;;11.20;99.90;;;;;;4974324;28;20130;-54
2022/02/22 03:46:18;;;;;;;4.40;1.23;;;11.40;99.90;;;;;;4975559;28;20074;-52
2022/02/22 03:48:46;;;;;;;2.22;1.15;;;11.40;99.90;;;;;;4977719;28;20035;-51
2022/02/22 03:51:13;;;;;;;3.80;0.95;;;11.50;99.90;;;;;;4977783;28;20409;-52
2022/02/22 03:53:41;;;;;;;3.75;1.63;;;11.50;99.90;;;;;;4976595;28;20075;-50
2022/02/22 03:56:09;;;;;;;3.65;1.10;;;11.50;99.90;;;;;;4976507;28;20043;-52
2022/02/22 03:58:36;;;;;;;1.90;0.90;;;11.60;99.90;;;;;;4976499;28;20102;-53
2022/02/22 04:01:04;;;;;;;1.95;1.00;;;11.70;99.90;;;;;;4977952;28;20560;-51
2022/02/22 04:03:31;;;;;;;6.88;2.25;;;11.80;99.90;;;;;;4977468;28;20126;-49
2022/02/22 04:05:59;;;;;;;0.88;0.70;;;11.90;99.90;;;;;;4976333;28;20082;-52
2022/02/22 04:08:26;;;;;;;1.95;1.02;;;12.10;99.90;;;;;;4976367;28;20047;-51
2022/02/22 04:10:54;;;;;;;2.00;0.85;;;12.20;99.90;;;;;;4944568;28;20145;-51
2022/02/22 04:13:22;;;;;;;1.35;0.80;;;12.30;99.90;;;;;;4976157;28;20137;-52
2022/02/22 04:15:49;;;;;;;1.75;0.90;;;12.40;99.90;;;;;;4977338;28;20074;-51
2022/02/22 04:18:16;;;;;;;2.75;1.15;;;12.50;99.90;;;;;;4977438;28;20050;-51
2022/02/22 04:20:45;;;;;;;4.72;1.10;;;12.40;99.90;;;;;;4976261;28;20402;-52
2022/02/22 04:23:12;;;;;;;2.42;0.85;;;12.50;99.90;;;;;;4960088;28;20043;-50
2022/02/22 04:25:40;;;;;;;5.80;1.25;;;12.50;99.90;;;;;;4976064;28;20398;-51
2022/02/22 04:28:08;;;;;;;6.40;1.45;;;12.50;99.90;;;;;;4975936;28;20047;-50
2022/02/22 04:30:35;;;;;;;4.32;1.75;;;12.40;99.90;;;;;;4976982;28;20398;-52
2022/02/22 04:33:03;;;;;;;3.10;1.48;;;12.40;99.90;;;;;;4976891;28;20051;-55
2022/02/22 04:35:33;;;;;;;3.13;1.40;;;12.40;99.90;;;;;;4975684;28;20090;-52
2022/02/22 04:38:01;;;;;;;3.22;1.83;;;12.40;99.90;;;;;;4944279;28;20398;-51
2022/02/22 04:40:29;;;;;;;2.40;1.70;;;12.40;99.90;;;;;;4975970;28;20406;-54
2022/02/22 04:42:57;;;;;;;1.90;1.10;;;12.40;99.90;;;;;;4975701;28;20098;-52
2022/02/22 04:45:25;;;;;;;2.97;1.45;;;12.40;99.90;;;;;;4975642;28;20050;-50
2022/02/22 04:47:56;;;;;;;5.07;1.90;;;12.40;99.90;;;;;;4975873;28;20446;-52
2022/02/22 04:50:24;;;;;;;4.15;1.70;;;12.50;99.90;;;;;;4975616;28;20053;-52
2022/02/22 04:52:51;;;;;;;7.72;1.60;;;12.40;99.90;;;;;;4975660;28;20045;-51
2022/02/22 04:55:20;;;;;;;1.67;0.98;;;12.40;99.90;;;;;;4975280;28;20101;-52
2022/02/22 04:57:47;;;;;;;3.50;1.23;;;12.40;99.90;;;;;;4974528;28;20047;-50
2022/02/22 05:00:16;;;;;;;3.85;1.48;;;12.50;99.90;;;;;;4975757;28;20424;-52
2022/02/22 05:02:43;;;;;;;7.07;1.23;;;12.50;99.90;;;;;;4959554;28;20046;-53
2022/02/22 05:05:11;;;;;;;4.22;0.98;;;12.50;99.90;;;;;;4976561;28;20049;-53
2022/02/22 05:07:39;;;;;;;3.63;1.40;;;12.50;99.90;;;;;;4975354;28;20070;-51
2022/02/22 05:10:07;;;;;;;2.13;1.00;;;12.50;99.90;;;;;;4975113;28;20058;-50
2022/02/22 05:12:34;;;;;;;2.28;1.33;;;12.50;99.90;;;;;;4975081;28;20379;-49
2022/02/22 05:15:03;;;;;;;10.07;1.85;;;12.50;99.90;;;;;;4964351;28;20030;-52
2022/02/22 05:17:32;;;;;;;1.90;1.08;;;12.60;99.90;;;;;;4974588;28;20069;-50
2022/02/22 05:20:00;;;;;;;2.10;1.02;;;12.50;99.90;;;;;;4973669;28;20410;-54
2022/02/22 05:22:27;;;;;;;4.10;1.38;;;12.50;99.90;;;;;;4972174;28;20077;-50
2022/02/22 05:24:55;;;;;;;2.65;1.17;;;12.50;99.90;;;;;;4972103;28;20732;-50
2022/02/22 05:27:22;;;;;;;5.30;1.25;;;12.50;99.90;;;;;;4973836;28;20077;-54
2022/02/22 05:29:50;;;;;;;2.97;1.10;;;12.40;99.90;;;;;;4969388;28;20083;-55
2022/02/22 05:32:20;;;;;;;4.97;1.40;;;12.40;99.90;;;;;;4932293;28;20085;-51
2022/02/22 05:34:47;;;;;;;1.80;0.98;;;12.40;99.90;;;;;;4973096;28;20070;-53
2022/02/22 05:37:15;;;;;;;3.88;1.30;;;12.40;99.90;;;;;;4973814;28;20070;-54
2022/02/22 05:39:43;;;;;;;3.67;1.52;;;12.40;99.90;;;;;;4972587;28;20137;-56
2022/02/22 05:42:10;;;;;;;2.55;1.38;;;12.20;99.90;;;;;;4952255;28;20046;-53
2022/02/22 05:44:38;;;;;;;3.38;0.95;;;12.10;99.90;;;;;;4972295;28;20061;-55
2022/02/22 05:47:05;;;;;;;3.47;1.30;;;12.10;99.90;;;;;;4974027;28;20046;-50
2022/02/22 05:49:33;;;;;;;3.67;1.05;;;12.10;99.90;;;;;;4972489;28;20174;-50
2022/02/22 05:52:00;;;;;;;4.50;1.20;;;12.10;99.90;;;;;;4972308;28;20097;-52
2022/02/22 05:54:28;;;;;;;5.90;1.52;;;12.10;99.90;;;;;;4972530;28;20043;-53
2022/02/22 05:56:55;;;;;;;3.53;1.90;;;12.10;99.90;;;;;;4972029;28;20035;-53
2022/02/22 05:59:23;;;;;;;3.92;1.40;;;12.10;99.90;;;;;;4970813;28;20496;-50
2022/02/22 06:01:50;;;;;;;6.22;1.60;;;12.20;99.90;;;;;;4974082;28;20525;-51
2022/02/22 06:04:18;;;;;;;6.65;1.35;;;12.20;99.90;;;;;;4974440;28;20043;-53
2022/02/22 06:06:45;;;;;;;3.85;1.98;;;12.20;99.90;;;;;;4974235;28;20502;-53
2022/02/22 06:09:13;;;;;;;3.75;2.00;;;12.20;99.90;;;;;;4975030;28;20042;-50
2022/02/22 06:11:42;;;;;;;5.00;1.60;;;12.30;99.90;;;;;;4974025;28;20201;-51
2022/02/22 06:14:12;;;;;;;3.65;1.50;;;12.30;99.90;;;;;;4974369;28;20062;-51
2022/02/22 06:16:40;;;;;;;4.13;1.88;;;12.40;99.90;;;;;;4974076;28;20035;-55
2022/02/22 06:19:09;;;;;;;4.72;1.48;;;12.40;99.90;;;;;;4974019;28;20055;-50
2022/02/22 06:21:37;;;;;;;3.97;1.70;;;12.50;99.90;;;;;;4974094;28;20038;-50
2022/02/22 06:24:05;;;;;;;3.08;1.30;;;12.50;99.90;;;;;;4975223;28;20038;-51
2022/02/22 06:26:33;;;;;;;2.75;1.88;;;12.50;99.90;;;;;;4958005;28;20509;-50
2022/02/22 06:29:00;;;;;;;4.05;1.40;;;12.60;99.90;;;;;;4973871;28;20082;-54
2022/02/22 06:31:28;;;;;;;8.15;2.17;;;12.60;99.90;;;;;;4958107;28;20046;-52
2022/02/22 06:33:56;;;;;;;5.50;1.42;;;12.60;99.90;;;;;;4973789;28;20090;-51
2022/02/22 06:36:24;;;;;;;4.43;1.42;;;12.60;99.90;;;;;;4942057;28;20051;-53
2022/02/22 06:38:52;;;;;;;3.92;1.70;;;12.70;99.90;;;;;;4973769;28;20043;-52
2022/02/22 06:41:19;;;;;;;5.22;1.77;;;12.80;99.90;;;;;;4973790;28;20078;-55
2022/02/22 06:43:47;;;;;;;5.93;1.63;;;12.80;99.90;;;;;;4974858;28;20066;-52
2022/02/22 06:46:15;;;;;;;6.43;1.77;;;12.80;99.90;;;;;;4974732;28;20461;-51
2022/02/22 06:48:42;;;;;;;4.18;1.52;;;12.90;99.90;;;;;;4973619;28;20193;-51
2022/02/22 06:51:10;;;;;;;5.32;2.78;;;13.30;99.90;;;;;;4957853;28;20109;-51
2022/02/22 06:53:38;;;;;;;6.32;2.88;;;14.10;99.90;;;;;;4973793;28;20047;-51
2022/02/22 06:56:07;;;;;;;5.20;2.08;;;15.20;99.90;;;;;;4973587;28;20047;-50
2022/02/22 06:58:37;;;;;;;7.05;4.05;;;15.70;99.90;;;;;;4973747;28;20082;-51
2022/02/22 07:01:05;;;;;;;6.75;3.10;;;15.60;99.90;;;;;;4973668;28;20085;-49
2022/02/22 07:03:32;;;;;;;6.30;3.67;;;15.40;99.90;;;;;;4973379;28;20043;-50
2022/02/22 07:06:01;;;;;;;5.70;2.67;;;15.00;99.90;;;;;;4973547;28;20066;-51
2022/02/22 07:08:28;;;;;;;3.40;1.80;;;14.70;99.90;;;;;;4973308;28;20565;-51
2022/02/22 07:10:58;;;;;;;6.90;2.22;;;14.50;99.90;;;;;;4973921;28;20042;-54
2022/02/22 07:13:26;;;;;;;3.03;1.77;;;14.30;99.90;;;;;;4957471;28;20397;-53
2022/02/22 07:15:53;;;;;;;5.32;1.95;;;14.20;99.90;;;;;;4957505;28;20149;-50
2022/02/22 07:18:21;;;;;;;6.05;2.58;;;14.10;99.90;;;;;;4974650;28;20047;-54
2022/02/22 07:20:49;;;;;;;3.78;2.22;;;14.10;99.90;;;;;;4975404;28;20171;-51
2022/02/22 07:23:16;;;;;;;7.93;2.55;;;14.20;99.90;;;;;;4978447;28;20055;-51
2022/02/22 07:25:44;;;;;;;5.78;2.83;;;14.50;99.90;;;;;;4945404;28;20441;-54
2022/02/22 07:28:12;;;;;;;5.40;2.05;;;14.60;99.90;;;;;;4960957;28;20042;-52
2022/02/22 07:30:41;;;;;;;10.00;2.53;;;14.90;99.90;;;;;;4976885;28;20075;-53
2022/02/22 07:33:09;;;;;;;6.35;1.85;;;15.20;99.90;;;;;;4978389;28;20050;-51
2022/02/22 07:35:37;;;;;;;4.07;1.73;;;15.70;99.90;;;;;;4977104;28;20453;-54
2022/02/22 07:38:04;;;;;;;5.18;1.50;;;16.10;99.90;;;;;;4976826;28;20508;-51
2022/02/22 07:40:32;;;;;;;4.28;1.38;;;16.30;99.90;;;;;;4977971;28;20078;-49
2022/02/22 07:43:01;;;;;;;6.40;2.72;;;16.40;99.90;;;;;;4960929;28;20465;-50
2022/02/22 07:45:29;;;;;;;7.40;2.10;;;16.60;99.90;;;;;;4976906;28;20054;-54
2022/02/22 07:47:57;;;;;;;5.40;1.67;;;16.70;99.70;;;;;;4976932;28;20209;-53
2022/02/22 07:50:24;;;;;;;8.50;1.60;;;16.70;99.30;;;;;;4976902;28;20042;-52
2022/02/22 07:52:52;;;;;;;4.15;1.30;;;16.80;98.90;;;;;;4960905;28;20046;-53
2022/02/22 07:55:20;;;;;;;5.70;2.28;;;16.90;98.60;;;;;;4976657;28;20446;-54
2022/02/22 07:57:50;;;;;;;2.15;1.00;;;16.80;98.20;;;;;;4976501;28;20047;-52
2022/02/22 08:00:18;;;;;;;5.05;2.28;;;16.60;98.00;;;;;;4976815;28;20042;-49
2022/02/22 08:02:46;;;;;;;5.25;2.22;;;16.50;98.10;;;;;;4977760;28;20043;-55
2022/02/22 08:05:14;;;;;;;2.80;1.80;;;16.30;98.60;;;;;;4976505;28;20546;-50
2022/02/22 08:07:42;;;;;;;8.10;1.85;;;16.20;98.80;;;;;;4977336;28;20450;-50
2022/02/22 08:10:09;;;;;;;8.82;2.75;;;16.10;99.00;;;;;;4977683;28;20142;-51
2022/02/22 08:12:37;;;;;;;8.55;2.42;;;16.00;99.20;;;;;;4960384;28;20082;-50
2022/02/22 08:15:07;;;;;;;4.43;1.88;;;15.90;99.70;;;;;;4977377;28;20035;-50
2022/02/22 08:17:44;;;;;;;9.75;3.83;;;15.80;99.90;;;;;;4977376;28;20117;-52
2022/02/22 08:20:12;;;;;;;6.60;3.08;;;15.70;99.90;;;;;;4976404;28;20390;-51
2022/02/22 08:22:40;;;;;;;6.40;2.78;;;15.80;99.90;;;;;;4976190;28;20050;-53
2022/02/22 08:25:08;;;;;;;7.18;3.33;;;15.80;99.90;;;;;;4976000;28;20466;-50
2022/02/22 08:27:36;;;;;;;5.13;2.25;;;15.90;99.90;;;;;;4960329;28;20450;-51
2022/02/22 08:30:04;;;;;;;4.68;2.05;;;16.10;99.90;;;;;;4976075;28;20101;-51
2022/02/22 08:32:32;;;;;;;5.57;2.15;;;16.40;99.90;;;;;;4975898;28;20039;-51
2022/02/22 08:34:59;;;;;;;6.43;1.80;;;16.90;99.10;;;;;;4975971;28;20043;-55
2022/02/22 08:37:27;;;;;;;3.65;1.27;;;17.20;98.40;;;;;;4975606;28;20038;-51
2022/02/22 08:39:56;;;;;;;4.60;1.85;;;17.50;98.00;;;;;;4977093;28;20051;-53
2022/02/22 08:42:24;;;;;;;3.65;1.52;;;17.80;97.70;;;;;;4975832;28;20086;-52
2022/02/22 08:45:02;;;;;;;5.63;2.17;;;18.10;97.30;;;;;;4977025;28;20153;-54
2022/02/22 08:47:31;;;;;;;4.05;2.00;;;18.30;96.60;;;;;;4975698;28;20061;-52
2022/02/22 08:49:59;;;;;;;6.32;1.80;;;18.40;96.40;;;;;;4976733;28;20038;-54
2022/02/22 08:52:29;;;;;;;6.40;1.70;;;18.40;96.00;;;;;;4975671;28;20367;-54
2022/02/22 08:55:00;;;;;;;7.55;3.03;;;18.40;96.00;;;;;;4944002;28;20073;-52
2022/02/22 08:57:30;;;;;;;5.32;1.90;;;18.50;95.80;;;;;;4976604;28;20046;-51
2022/02/22 08:59:59;;;;;;;4.97;1.40;;;18.60;95.40;;;;;;4975729;28;20066;-51
2022/02/22 09:02:29;;;;;;;4.07;1.55;;;18.60;95.20;;;;;;4975494;28;20043;-52
2022/02/22 09:04:56;;;;;;;2.70;1.48;;;18.40;94.90;;;;;;4975689;28;20404;-51
2022/02/22 09:07:26;;;;;;;4.47;1.70;;;18.10;94.60;;;;;;4976572;28;20482;-53
2022/02/22 09:09:54;;;;;;;4.60;1.50;;;17.70;94.80;;;;;;4975030;28;20085;-50
2022/02/22 09:12:22;;;;;;;12.20;2.00;;;17.30;94.70;;;;;;4976482;28;20446;-55
2022/02/22 09:14:50;;;;;;;2.75;1.45;;;16.90;94.80;;;;;;4975171;28;20490;-50
2022/02/22 09:17:17;;;;;;;6.50;1.60;;;16.60;95.20;;;;;;4975071;28;20142;-52
2022/02/22 09:19:46;;;;;;;4.88;1.60;;;16.40;95.80;;;;;;4975501;28;20062;-50
2022/02/22 09:22:13;;;;;;;3.83;1.30;;;16.20;96.10;;;;;;4975183;28;20039;-50
2022/02/22 09:24:41;;;;;;;3.20;1.60;;;16.00;96.50;;;;;;4975051;28;20636;-51
2022/02/22 09:27:09;;;;;;;4.57;1.48;;;15.90;97.00;;;;;;4976080;28;20129;-52
2022/02/22 09:29:39;;;;;;;4.20;1.38;;;15.80;97.80;;;;;;4976213;28;20057;-53
2022/02/22 09:32:08;;;;;;;2.55;1.50;;;15.60;98.40;;;;;;4959189;28;20049;-51
2022/02/22 09:34:36;;;;;;;4.15;1.42;;;15.50;98.80;;;;;;4975042;28;20086;-50
2022/02/22 09:37:05;;;;;;;4.93;2.20;;;15.40;99.20;;;;;;4974577;28;20121;-51
2022/02/22 09:39:34;;;;;;;3.28;1.98;;;15.20;99.40;;;;;;4974630;28;20042;-56
2022/02/22 09:42:07;;;;;;;6.88;1.38;;;15.10;99.70;;;;;;4966515;28;20141;-58
2022/02/22 09:44:37;;;;;;;3.10;1.45;;;15.00;99.40;;;;;;4972497;28;20121;-56
2022/02/22 09:47:06;;;;;;;5.78;1.88;;;14.90;99.50;;;;;;4972096;28;20508;-55
2022/02/22 09:49:36;;;;;;;3.67;1.75;;;14.90;99.80;;;;;;4951622;28;20104;-55
2022/02/22 09:52:04;;;;;;;2.88;1.40;;;14.90;99.90;;;;;;4943059;29;20529;-55
2022/02/22 09:54:33;;;;;;;4.75;1.58;;;14.90;99.90;;;;;;4984011;28;20450;-54
2022/02/22 09:57:01;;;;;;;5.90;2.58;;;14.90;99.90;;;;;;4968985;28;20465;-55
2022/02/22 09:59:29;;;;;;;5.07;1.70;;;14.90;99.90;;;;;;4972748;28;20489;-56
2022/02/22 10:01:58;;;;;;;5.80;1.50;;;15.00;99.90;;;;;;4972032;28;20500;-55
2022/02/22 10:04:26;;;;;;;3.38;1.77;;;15.00;99.90;;;;;;4934707;29;20430;-57
2022/02/22 10:07:04;;;;;;;3.20;1.15;;;15.00;99.80;;;;;;4953630;28;20058;-56
2022/02/22 10:09:31;;;;;;;2.53;1.20;;;15.10;99.90;;;;;;4972498;28;20130;-58
2022/02/22 10:11:59;;;;;;;3.33;1.50;;;15.20;99.90;;;;;;4971596;28;20042;-58
2022/02/22 10:14:29;;;;;;;4.22;2.08;;;15.30;99.50;;;;;;4960920;28;20053;-56
2022/02/22 10:17:00;;;;;;;2.40;1.65;;;15.40;99.30;;;;;;4972272;28;20043;-57
2022/02/22 10:19:30;;;;;;;2.13;1.60;;;15.60;99.30;;;;;;4972807;28;20049;-56
2022/02/22 10:21:57;;;;;;;5.07;3.13;;;15.90;99.10;;;;;;4971565;28;20039;-58
2022/02/22 10:24:30;;;;;;;6.63;3.00;;;16.20;99.10;;;;;;4972860;28;20042;-56
2022/02/22 10:27:07;;;;;;;5.93;1.90;;;16.60;98.90;;;;;;4970992;28;20137;-56
2022/02/22 10:29:37;;;;;;;5.82;1.92;;;16.90;98.60;;;;;;4965497;28;20047;-56
2022/02/22 10:32:16;;;;;;;9.68;3.22;;;17.00;97.70;;;;;;4966047;28;20041;-57
2022/02/22 10:34:44;;;;;;;5.93;3.75;;;17.10;97.50;;;;;;4961520;28;20047;-53
2022/02/22 10:37:11;;;;;;;8.60;2.22;;;16.90;97.50;;;;;;4970849;28;20472;-56
2022/02/22 10:39:40;;;;;;;5.63;2.83;;;16.90;97.10;;;;;;4961840;28;20146;-58
2022/02/22 10:42:10;;;;;;;7.38;3.88;;;17.00;97.50;;;;;;4971178;28;20058;-57
2022/02/22 10:44:39;;;;;;;5.65;3.08;;;17.20;98.30;;;;;;4971611;28;20054;-59
2022/02/22 10:47:18;;;;;;;8.93;3.33;;;17.40;98.00;;;;;;4972606;28;20046;-59
2022/02/22 10:49:48;;;;;;;4.80;2.75;;;17.80;97.90;;;;;;4972364;28;20441;-58
2022/02/22 10:52:16;;;;;;;4.32;2.40;;;18.10;97.70;;;;;;4972437;28;20073;-63
2022/02/22 10:54:44;;;;;;;5.00;1.85;;;18.20;97.40;;;;;;4971409;28;20039;-62
2022/02/22 10:57:14;;;;;;;4.07;2.38;;;18.30;97.00;;;;;;4963586;28;20453;-59
2022/02/22 10:59:44;;;;;;;4.50;2.42;;;18.50;96.40;;;;;;4963149;28;20055;-59
2022/02/22 11:02:12;;;;;;;11.27;3.65;;;18.50;96.00;;;;;;4975639;28;20054;-60
2022/02/22 11:04:41;;;;;;;3.15;1.88;;;18.70;96.70;;;;;;4973538;28;20102;-60
2022/02/22 11:07:15;;;;;;;11.80;2.80;;;18.80;95.50;;;;;;4943564;28;20050;-60
2022/02/22 11:09:47;;;;;;;3.42;1.45;;;18.70;95.10;;;;;;4964656;28;20544;-60
2022/02/22 11:12:33;;;;;;;2.33;1.25;;;18.20;95.40;;;;;;4959580;28;20038;-60
2022/02/22 11:15:11;;;;;;;4.82;1.70;;;17.80;95.50;;;;;;4975571;28;20053;-61
2022/02/22 11:17:48;;;;;;;9.48;1.80;;;17.20;95.10;;;;;;4976174;28;20046;-59
2022/02/22 11:20:32;;;;;;;5.88;1.70;;;16.70;95.20;;;;;;4976637;28;20039;-59
2022/02/22 11:23:03;;;;;;;9.30;3.20;;;16.30;97.10;;;;;;4954190;28;20055;-62
2022/02/22 11:25:34;;;;;;;10.13;3.42;;;16.30;99.90;;;;;;4975586;28;20054;-59
2022/02/22 11:28:08;;;;;;;12.18;4.38;;;16.30;99.90;;;;;;4974878;28;20062;-59
2022/02/22 11:30:37;;;;;;;7.68;3.72;;;16.10;99.90;;;;;;4973897;28;20042;-61
2022/02/22 11:33:10;;;;;;;6.30;2.72;;;15.80;99.90;;;;;;4965539;28;20058;-59
2022/02/22 11:35:45;;;;;;;4.20;1.90;;;15.50;99.90;;;;;;4948780;28;20042;-61
2022/02/22 11:38:14;;;;;;;3.00;2.00;;;15.20;99.90;;;;;;4975258;28;20042;-59
2022/02/22 11:40:42;;;;;;;6.97;2.53;;;14.90;99.90;;;;;;4973567;28;20046;-63
2022/02/22 11:43:15;;;;;;;4.10;1.88;;;14.70;99.90;;;;;;4975296;28;20079;-59
2022/02/22 11:45:48;;;;;;;9.75;4.97;;;14.50;99.90;;;;;;4975660;28;20532;-59
2022/02/22 11:48:20;;;;;;;7.38;3.17;;;14.40;99.90;;;;;;4975007;28;20402;-59
2022/02/22 11:50:58;;;;;;;9.00;4.78;;;14.30;99.90;;;;;;4971497;28;20042;-59
2022/02/22 11:53:29;;;;;;;4.40;3.00;;;14.30;99.90;;;;;;4974818;28;20142;-59
2022/02/22 11:55:59;;;;;;;6.35;2.90;;;14.20;99.90;;;;;;4963243;28;20067;-59
2022/02/22 11:58:36;;;;;;;4.65;3.00;;;14.10;99.90;;;;;;4975258;28;20047;-60
2022/02/22 12:01:05;;;;;;;6.65;3.05;;;14.00;99.90;;;;;;4975716;28;20528;-59
2022/02/22 12:03:49;;;;;;;7.22;2.72;;;14.00;99.90;;;;;;4974173;28;20054;-59
2022/02/22 12:06:20;;;;;;;3.45;1.42;;;13.90;99.90;;;;;;4969976;28;20078;-59
2022/02/22 12:08:51;;;;;;;3.15;1.48;;;13.90;99.90;;;;;;4956785;29;20047;-59
2022/02/22 12:11:21;;;;;;;4.32;1.70;;;13.80;99.90;;;;;;4958141;28;20043;-59
2022/02/22 12:14:00;;;;;;;2.65;1.65;;;13.70;99.90;;;;;;4957223;28;20050;-59
2022/02/22 12:16:30;;;;;;;3.33;1.75;;;13.70;99.90;;;;;;4957031;28;20055;-59
2022/02/22 12:19:03;;;;;;;3.80;1.70;;;13.80;99.90;;;;;;4956823;28;20051;-59
2022/02/22 12:21:31;;;;;;;3.40;2.30;;;13.70;99.90;;;;;;4958055;29;20058;-59
2022/02/22 12:24:01;;;;;;;5.20;2.30;;;13.70;99.90;;;;;;4956891;29;20047;-59
2022/02/22 12:26:28;;;;;;;4.07;1.67;;;13.70;99.90;;;;;;4958057;28;20055;-59
2022/02/22 12:29:03;;;;;;;4.32;1.80;;;13.60;99.90;;;;;;4957835;28;20459;-59
2022/02/22 12:31:42;;;;;;;4.07;1.98;;;13.60;99.90;;;;;;4956780;29;20047;-60
2022/02/22 12:34:12;;;;;;;4.15;2.40;;;13.60;99.90;;;;;;4956541;29;20039;-59
2022/02/22 12:36:42;;;;;;;3.58;2.08;;;13.40;99.90;;;;;;4956716;28;20051;-59
2022/02/22 12:39:13;;;;;;;5.50;2.08;;;13.40;99.90;;;;;;4972488;28;20051;-59
2022/02/22 12:41:43;;;;;;;2.97;1.63;;;13.30;99.90;;;;;;4956599;29;20490;-59
2022/02/22 12:44:18;;;;;;;2.75;1.50;;;13.20;99.90;;;;;;4956712;28;20055;-59
2022/02/22 12:46:48;;;;;;;4.17;2.20;;;13.20;99.90;;;;;;4957647;28;20505;-59
2022/02/22 12:49:18;;;;;;;5.93;3.03;;;13.10;99.90;;;;;;4956815;28;20196;-59
2022/02/22 12:51:48;;;;;;;7.35;4.15;;;13.20;99.90;;;;;;4956202;29;20102;-59
2022/02/22 12:54:20;;;;;;;5.25;2.83;;;13.20;99.90;;;;;;4956294;29;20494;-59